sensor_id;sensor_type;location;lat;lon;timestamp;P1;durP1;ratioP1;P2;durP2;ratioP2
61840;SDS011;47773;53.174;6.614;2023-02-24T00:01:26;10.05;;;1.70;;
61840;SDS011;47773;53.174;6.614;2023-02-24T00:03:58;8.68;;;2.60;;
61840;SDS011;47773;53.174;6.614;2023-02-24T00:06:25;6.57;;;1.73;;
61840;SDS011;47773;53.174;6.614;2023-02-24T00:09:04;10.38;;;1.73;;
61840;SDS011;47773;53.174;6.614;2023-02-24T00:11:32;11.05;;;1.70;;
61840;SDS011;47773;53.174;6.614;2023-02-24T00:14:01;10.30;;;2.40;;
61840;SDS011;47773;53.174;6.614;2023-02-24T00:16:30;8.35;;;1.42;;
61840;SDS011;47773;53.174;6.614;2023-02-24T00:18:56;18.40;;;1.80;;
61840;SDS011;47773;53.174;6.614;2023-02-24T00:21:23;10.85;;;1.83;;
61840;SDS011;47773;53.174;6.614;2023-02-24T00:23:49;7.40;;;1.67;;
61840;SDS011;47773;53.174;6.614;2023-02-24T00:26:18;10.23;;;1.75;;
61840;SDS011;47773;53.174;6.614;2023-02-24T00:28:44;9.27;;;1.63;;
61840;SDS011;47773;53.174;6.614;2023-02-24T00:31:14;16.42;;;1.75;;
61840;SDS011;47773;53.174;6.614;2023-02-24T00:33:42;11.52;;;1.60;;
61840;SDS011;47773;53.174;6.614;2023-02-24T00:36:13;10.20;;;2.13;;
61840;SDS011;47773;53.174;6.614;2023-02-24T00:38:41;12.13;;;1.52;;
61840;SDS011;47773;53.174;6.614;2023-02-24T00:41:11;10.48;;;1.40;;
61840;SDS011;47773;53.174;6.614;2023-02-24T00:43:40;13.40;;;1.48;;
61840;SDS011;47773;53.174;6.614;2023-02-24T00:46:17;6.03;;;1.33;;
61840;SDS011;47773;53.174;6.614;2023-02-24T00:48:45;9.90;;;1.38;;
61840;SDS011;47773;53.174;6.614;2023-02-24T00:51:17;10.13;;;1.38;;
61840;SDS011;47773;53.174;6.614;2023-02-24T00:53:50;13.25;;;1.38;;
61840;SDS011;47773;53.174;6.614;2023-02-24T00:56:24;8.10;;;1.55;;
61840;SDS011;47773;53.174;6.614;2023-02-24T00:58:52;6.90;;;1.70;;
61840;SDS011;47773;53.174;6.614;2023-02-24T01:01:20;11.18;;;1.55;;
61840;SDS011;47773;53.174;6.614;2023-02-24T01:03:48;11.27;;;1.70;;
61840;SDS011;47773;53.174;6.614;2023-02-24T01:06:16;9.15;;;1.00;;
61840;SDS011;47773;53.174;6.614;2023-02-24T01:08:46;12.90;;;1.73;;
61840;SDS011;47773;53.174;6.614;2023-02-24T01:11:14;5.40;;;1.38;;
61840;SDS011;47773;53.174;6.614;2023-02-24T01:14:11;9.43;;;1.13;;
61840;SDS011;47773;53.174;6.614;2023-02-24T01:16:40;8.77;;;0.95;;
61840;SDS011;47773;53.174;6.614;2023-02-24T01:19:08;4.68;;;1.10;;
61840;SDS011;47773;53.174;6.614;2023-02-24T01:21:35;8.80;;;1.13;;
61840;SDS011;47773;53.174;6.614;2023-02-24T01:24:00;10.13;;;1.42;;
61840;SDS011;47773;53.174;6.614;2023-02-24T01:26:26;8.73;;;1.55;;
61840;SDS011;47773;53.174;6.614;2023-02-24T01:28:53;6.70;;;1.08;;
61840;SDS011;47773;53.174;6.614;2023-02-24T01:31:20;12.38;;;1.38;;
61840;SDS011;47773;53.174;6.614;2023-02-24T01:33:47;7.10;;;1.10;;
61840;SDS011;47773;53.174;6.614;2023-02-24T01:36:18;8.30;;;1.27;;
61840;SDS011;47773;53.174;6.614;2023-02-24T01:38:45;10.05;;;1.10;;
61840;SDS011;47773;53.174;6.614;2023-02-24T01:41:14;7.80;;;1.00;;
61840;SDS011;47773;53.174;6.614;2023-02-24T01:46:43;5.63;;;1.20;;
61840;SDS011;47773;53.174;6.614;2023-02-24T01:49:18;9.43;;;1.20;;
61840;SDS011;47773;53.174;6.614;2023-02-24T01:51:53;12.35;;;1.83;;
61840;SDS011;47773;53.174;6.614;2023-02-24T01:54:23;2.17;;;0.88;;
61840;SDS011;47773;53.174;6.614;2023-02-24T01:56:52;8.55;;;1.38;;
61840;SDS011;47773;53.174;6.614;2023-02-24T01:59:20;11.82;;;1.67;;
61840;SDS011;47773;53.174;6.614;2023-02-24T02:01:48;14.07;;;1.73;;
61840;SDS011;47773;53.174;6.614;2023-02-24T02:06:52;11.65;;;1.67;;
61840;SDS011;47773;53.174;6.614;2023-02-24T02:09:18;9.38;;;1.65;;
61840;SDS011;47773;53.174;6.614;2023-02-24T02:11:45;7.78;;;1.30;;
61840;SDS011;47773;53.174;6.614;2023-02-24T02:14:16;6.90;;;1.20;;
61840;SDS011;47773;53.174;6.614;2023-02-24T02:31:47;9.73;;;1.20;;
61840;SDS011;47773;53.174;6.614;2023-02-24T02:42:23;8.75;;;1.02;;
61840;SDS011;47773;53.174;6.614;2023-02-24T02:47:49;5.13;;;1.17;;
61840;SDS011;47773;53.174;6.614;2023-02-24T02:50:24;5.63;;;1.30;;
61840;SDS011;47773;53.174;6.614;2023-02-24T02:52:57;8.10;;;1.08;;
61840;SDS011;47773;53.174;6.614;2023-02-24T02:58:05;8.63;;;0.98;;
61840;SDS011;47773;53.174;6.614;2023-02-24T03:00:38;5.60;;;1.20;;
61840;SDS011;47773;53.174;6.614;2023-02-24T03:03:14;6.40;;;1.13;;
61840;SDS011;47773;53.174;6.614;2023-02-24T03:05:46;3.50;;;0.90;;
61840;SDS011;47773;53.174;6.614;2023-02-24T03:08:17;13.75;;;1.45;;
61840;SDS011;47773;53.174;6.614;2023-02-24T03:10:47;9.82;;;1.30;;
61840;SDS011;47773;53.174;6.614;2023-02-24T03:13:15;8.15;;;1.40;;
61840;SDS011;47773;53.174;6.614;2023-02-24T03:15:46;10.32;;;1.30;;
61840;SDS011;47773;53.174;6.614;2023-02-24T03:18:15;9.30;;;1.10;;
61840;SDS011;47773;53.174;6.614;2023-02-24T03:20:51;10.88;;;0.90;;
61840;SDS011;47773;53.174;6.614;2023-02-24T03:23:24;7.28;;;0.95;;
61840;SDS011;47773;53.174;6.614;2023-02-24T03:28:36;10.50;;;1.40;;
61840;SDS011;47773;53.174;6.614;2023-02-24T03:31:14;5.00;;;0.90;;
61840;SDS011;47773;53.174;6.614;2023-02-24T03:33:45;10.57;;;1.17;;
61840;SDS011;47773;53.174;6.614;2023-02-24T03:36:21;8.07;;;1.35;;
61840;SDS011;47773;53.174;6.614;2023-02-24T03:38:47;7.70;;;0.93;;
61840;SDS011;47773;53.174;6.614;2023-02-24T03:41:14;7.00;;;1.60;;
61840;SDS011;47773;53.174;6.614;2023-02-24T03:43:44;11.93;;;1.20;;
61840;SDS011;47773;53.174;6.614;2023-02-24T03:48:45;13.57;;;1.23;;
61840;SDS011;47773;53.174;6.614;2023-02-24T03:51:20;10.57;;;1.40;;
61840;SDS011;47773;53.174;6.614;2023-02-24T03:56:35;14.38;;;1.23;;
61840;SDS011;47773;53.174;6.614;2023-02-24T03:59:16;10.88;;;1.20;;
61840;SDS011;47773;53.174;6.614;2023-02-24T04:01:50;13.23;;;1.45;;
61840;SDS011;47773;53.174;6.614;2023-02-24T04:10:02;9.02;;;1.30;;
61840;SDS011;47773;53.174;6.614;2023-02-24T04:15:51;9.73;;;1.20;;
61840;SDS011;47773;53.174;6.614;2023-02-24T04:18:22;6.30;;;1.08;;
61840;SDS011;47773;53.174;6.614;2023-02-24T04:20:51;9.60;;;1.38;;
61840;SDS011;47773;53.174;6.614;2023-02-24T04:23:22;6.47;;;1.05;;
61840;SDS011;47773;53.174;6.614;2023-02-24T04:25:55;10.90;;;1.20;;
61840;SDS011;47773;53.174;6.614;2023-02-24T04:28:21;9.30;;;1.30;;
61840;SDS011;47773;53.174;6.614;2023-02-24T04:30:49;8.15;;;1.45;;
61840;SDS011;47773;53.174;6.614;2023-02-24T04:33:18;9.50;;;1.13;;
61840;SDS011;47773;53.174;6.614;2023-02-24T04:35:44;14.10;;;1.65;;
61840;SDS011;47773;53.174;6.614;2023-02-24T04:38:11;10.65;;;1.33;;
61840;SDS011;47773;53.174;6.614;2023-02-24T04:40:37;9.65;;;1.30;;
61840;SDS011;47773;53.174;6.614;2023-02-24T04:43:04;8.30;;;1.65;;
61840;SDS011;47773;53.174;6.614;2023-02-24T04:45:32;8.95;;;1.65;;
61840;SDS011;47773;53.174;6.614;2023-02-24T04:47:58;11.43;;;1.25;;
61840;SDS011;47773;53.174;6.614;2023-02-24T04:50:27;6.05;;;1.10;;
61840;SDS011;47773;53.174;6.614;2023-02-24T04:52:58;11.52;;;1.15;;
61840;SDS011;47773;53.174;6.614;2023-02-24T04:55:27;9.75;;;1.20;;
61840;SDS011;47773;53.174;6.614;2023-02-24T04:57:58;7.00;;;1.65;;
61840;SDS011;47773;53.174;6.614;2023-02-24T05:00:25;13.43;;;1.38;;
61840;SDS011;47773;53.174;6.614;2023-02-24T05:02:53;8.70;;;1.67;;
61840;SDS011;47773;53.174;6.614;2023-02-24T05:05:20;12.75;;;1.70;;
61840;SDS011;47773;53.174;6.614;2023-02-24T05:07:56;8.85;;;1.00;;
61840;SDS011;47773;53.174;6.614;2023-02-24T05:10:30;13.20;;;1.10;;
61840;SDS011;47773;53.174;6.614;2023-02-24T05:13:00;15.07;;;2.75;;
61840;SDS011;47773;53.174;6.614;2023-02-24T05:15:27;5.40;;;0.93;;
61840;SDS011;47773;53.174;6.614;2023-02-24T05:17:57;5.80;;;1.77;;
61840;SDS011;47773;53.174;6.614;2023-02-24T05:20:24;7.65;;;1.02;;
61840;SDS011;47773;53.174;6.614;2023-02-24T05:23:12;7.38;;;1.00;;
61840;SDS011;47773;53.174;6.614;2023-02-24T05:25:37;9.32;;;1.50;;
61840;SDS011;47773;53.174;6.614;2023-02-24T05:28:07;5.22;;;1.10;;
61840;SDS011;47773;53.174;6.614;2023-02-24T05:30:33;10.98;;;1.15;;
61840;SDS011;47773;53.174;6.614;2023-02-24T05:32:59;19.45;;;1.23;;
61840;SDS011;47773;53.174;6.614;2023-02-24T05:35:25;9.35;;;1.00;;
61840;SDS011;47773;53.174;6.614;2023-02-24T05:37:51;11.98;;;1.23;;
61840;SDS011;47773;53.174;6.614;2023-02-24T05:40:17;13.48;;;1.40;;
61840;SDS011;47773;53.174;6.614;2023-02-24T05:42:47;12.32;;;1.60;;
61840;SDS011;47773;53.174;6.614;2023-02-24T05:45:14;12.25;;;1.63;;
61840;SDS011;47773;53.174;6.614;2023-02-24T05:47:40;12.52;;;1.63;;
61840;SDS011;47773;53.174;6.614;2023-02-24T05:50:10;8.20;;;1.02;;
61840;SDS011;47773;53.174;6.614;2023-02-24T05:52:36;11.00;;;1.63;;
61840;SDS011;47773;53.174;6.614;2023-02-24T05:55:04;8.63;;;1.25;;
61840;SDS011;47773;53.174;6.614;2023-02-24T05:57:31;12.80;;;1.50;;
61840;SDS011;47773;53.174;6.614;2023-02-24T05:59:59;13.63;;;1.52;;
61840;SDS011;47773;53.174;6.614;2023-02-24T06:02:33;16.50;;;1.70;;
61840;SDS011;47773;53.174;6.614;2023-02-24T06:05:01;8.75;;;1.10;;
61840;SDS011;47773;53.174;6.614;2023-02-24T06:07:29;12.27;;;1.50;;
61840;SDS011;47773;53.174;6.614;2023-02-24T06:10:00;11.48;;;1.55;;
61840;SDS011;47773;53.174;6.614;2023-02-24T06:12:32;12.25;;;1.58;;
61840;SDS011;47773;53.174;6.614;2023-02-24T06:15:00;15.90;;;1.45;;
61840;SDS011;47773;53.174;6.614;2023-02-24T06:17:31;17.00;;;1.58;;
61840;SDS011;47773;53.174;6.614;2023-02-24T06:19:57;22.85;;;1.55;;
61840;SDS011;47773;53.174;6.614;2023-02-24T06:22:24;12.95;;;1.85;;
61840;SDS011;47773;53.174;6.614;2023-02-24T06:24:51;12.63;;;1.63;;
61840;SDS011;47773;53.174;6.614;2023-02-24T06:27:19;15.02;;;2.28;;
61840;SDS011;47773;53.174;6.614;2023-02-24T06:29:46;7.15;;;1.75;;
61840;SDS011;47773;53.174;6.614;2023-02-24T06:32:19;14.40;;;1.73;;
61840;SDS011;47773;53.174;6.614;2023-02-24T06:34:47;14.30;;;1.70;;
61840;SDS011;47773;53.174;6.614;2023-02-24T06:37:14;10.00;;;2.47;;
61840;SDS011;47773;53.174;6.614;2023-02-24T06:39:40;12.18;;;2.15;;
61840;SDS011;47773;53.174;6.614;2023-02-24T06:42:07;14.57;;;1.95;;
61840;SDS011;47773;53.174;6.614;2023-02-24T06:44:37;11.63;;;1.83;;
61840;SDS011;47773;53.174;6.614;2023-02-24T06:47:05;11.98;;;2.50;;
61840;SDS011;47773;53.174;6.614;2023-02-24T06:49:32;18.63;;;2.72;;
61840;SDS011;47773;53.174;6.614;2023-02-24T06:51:59;14.07;;;2.67;;
61840;SDS011;47773;53.174;6.614;2023-02-24T06:54:25;17.77;;;2.40;;
61840;SDS011;47773;53.174;6.614;2023-02-24T06:56:55;13.80;;;2.85;;
61840;SDS011;47773;53.174;6.614;2023-02-24T06:59:23;21.33;;;2.83;;
61840;SDS011;47773;53.174;6.614;2023-02-24T07:01:56;22.55;;;2.75;;
61840;SDS011;47773;53.174;6.614;2023-02-24T07:04:23;15.10;;;2.80;;
61840;SDS011;47773;53.174;6.614;2023-02-24T07:06:50;17.65;;;2.95;;
61840;SDS011;47773;53.174;6.614;2023-02-24T07:09:20;15.63;;;3.15;;
61840;SDS011;47773;53.174;6.614;2023-02-24T07:11:48;14.93;;;3.25;;
61840;SDS011;47773;53.174;6.614;2023-02-24T07:14:21;18.80;;;2.92;;
61840;SDS011;47773;53.174;6.614;2023-02-24T07:16:50;13.68;;;2.90;;
61840;SDS011;47773;53.174;6.614;2023-02-24T07:19:19;15.80;;;3.50;;
61840;SDS011;47773;53.174;6.614;2023-02-24T07:21:49;25.33;;;3.90;;
61840;SDS011;47773;53.174;6.614;2023-02-24T07:24:23;23.83;;;4.18;;
61840;SDS011;47773;53.174;6.614;2023-02-24T07:26:57;26.60;;;4.38;;
61840;SDS011;47773;53.174;6.614;2023-02-24T07:29:25;12.60;;;3.47;;
61840;SDS011;47773;53.174;6.614;2023-02-24T07:31:51;17.50;;;4.10;;
61840;SDS011;47773;53.174;6.614;2023-02-24T07:34:22;17.48;;;4.20;;
61840;SDS011;47773;53.174;6.614;2023-02-24T07:36:51;17.83;;;3.35;;
61840;SDS011;47773;53.174;6.614;2023-02-24T07:39:19;19.60;;;4.60;;
61840;SDS011;47773;53.174;6.614;2023-02-24T07:41:50;15.07;;;4.25;;
61840;SDS011;47773;53.174;6.614;2023-02-24T07:44:17;22.38;;;3.78;;
61840;SDS011;47773;53.174;6.614;2023-02-24T07:46:44;19.98;;;3.85;;
61840;SDS011;47773;53.174;6.614;2023-02-24T07:49:13;23.10;;;4.13;;
61840;SDS011;47773;53.174;6.614;2023-02-24T07:51:44;23.75;;;3.70;;
61840;SDS011;47773;53.174;6.614;2023-02-24T07:54:16;18.77;;;4.15;;
61840;SDS011;47773;53.174;6.614;2023-02-24T07:56:42;19.20;;;4.53;;
61840;SDS011;47773;53.174;6.614;2023-02-24T07:59:12;25.33;;;3.60;;
61840;SDS011;47773;53.174;6.614;2023-02-24T08:01:43;20.45;;;3.95;;
61840;SDS011;47773;53.174;6.614;2023-02-24T08:04:17;15.35;;;3.60;;
61840;SDS011;47773;53.174;6.614;2023-02-24T08:06:44;22.92;;;4.03;;
61840;SDS011;47773;53.174;6.614;2023-02-24T08:09:18;15.93;;;3.50;;
61840;SDS011;47773;53.174;6.614;2023-02-24T08:11:52;17.63;;;3.70;;
61840;SDS011;47773;53.174;6.614;2023-02-24T08:14:19;18.38;;;3.85;;
61840;SDS011;47773;53.174;6.614;2023-02-24T08:16:49;20.70;;;4.05;;
61840;SDS011;47773;53.174;6.614;2023-02-24T08:19:23;26.35;;;4.78;;
61840;SDS011;47773;53.174;6.614;2023-02-24T08:22:07;22.35;;;3.92;;
61840;SDS011;47773;53.174;6.614;2023-02-24T08:24:49;14.52;;;3.55;;
61840;SDS011;47773;53.174;6.614;2023-02-24T08:27:18;15.57;;;4.13;;
61840;SDS011;47773;53.174;6.614;2023-02-24T08:29:49;19.52;;;4.25;;
61840;SDS011;47773;53.174;6.614;2023-02-24T08:34:57;24.38;;;4.22;;
61840;SDS011;47773;53.174;6.614;2023-02-24T08:37:33;13.77;;;3.38;;
61840;SDS011;47773;53.174;6.614;2023-02-24T08:40:15;19.02;;;4.60;;
61840;SDS011;47773;53.174;6.614;2023-02-24T08:42:58;14.73;;;3.50;;
61840;SDS011;47773;53.174;6.614;2023-02-24T08:45:44;21.20;;;4.45;;
61840;SDS011;47773;53.174;6.614;2023-02-24T08:48:15;20.48;;;4.07;;
61840;SDS011;47773;53.174;6.614;2023-02-24T08:54:06;18.30;;;3.25;;
61840;SDS011;47773;53.174;6.614;2023-02-24T08:56:35;17.73;;;3.35;;
61840;SDS011;47773;53.174;6.614;2023-02-24T08:59:08;14.07;;;3.40;;
61840;SDS011;47773;53.174;6.614;2023-02-24T09:01:53;13.35;;;2.92;;
61840;SDS011;47773;53.174;6.614;2023-02-24T09:04:40;13.98;;;3.03;;
61840;SDS011;47773;53.174;6.614;2023-02-24T09:07:11;18.17;;;3.88;;
61840;SDS011;47773;53.174;6.614;2023-02-24T09:09:41;13.70;;;3.22;;
61840;SDS011;47773;53.174;6.614;2023-02-24T09:12:07;18.45;;;4.20;;
61840;SDS011;47773;53.174;6.614;2023-02-24T09:14:48;16.15;;;3.47;;
61840;SDS011;47773;53.174;6.614;2023-02-24T09:17:26;14.07;;;3.80;;
61840;SDS011;47773;53.174;6.614;2023-02-24T09:20:12;6.65;;;3.13;;
61840;SDS011;47773;53.174;6.614;2023-02-24T09:22:51;11.63;;;3.70;;
61840;SDS011;47773;53.174;6.614;2023-02-24T09:25:35;12.80;;;3.60;;
61840;SDS011;47773;53.174;6.614;2023-02-24T09:28:22;17.92;;;3.97;;
61840;SDS011;47773;53.174;6.614;2023-02-24T09:35:43;17.23;;;3.60;;
61840;SDS011;47773;53.174;6.614;2023-02-24T09:38:11;12.73;;;3.80;;
61840;SDS011;47773;53.174;6.614;2023-02-24T09:40:41;10.43;;;3.92;;
61840;SDS011;47773;53.174;6.614;2023-02-24T09:43:19;15.13;;;4.07;;
61840;SDS011;47773;53.174;6.614;2023-02-24T09:45:53;9.77;;;4.55;;
61840;SDS011;47773;53.174;6.614;2023-02-24T09:48:34;19.88;;;4.75;;
61840;SDS011;47773;53.174;6.614;2023-02-24T09:51:32;14.52;;;4.95;;
61840;SDS011;47773;53.174;6.614;2023-02-24T09:54:17;18.30;;;5.30;;
61840;SDS011;47773;53.174;6.614;2023-02-24T09:57:01;35.27;;;5.80;;
61840;SDS011;47773;53.174;6.614;2023-02-24T09:59:44;17.55;;;5.07;;
61840;SDS011;47773;53.174;6.614;2023-02-24T10:02:49;32.22;;;6.90;;
61840;SDS011;47773;53.174;6.614;2023-02-24T10:05:35;26.23;;;5.03;;
61840;SDS011;47773;53.174;6.614;2023-02-24T10:08:15;28.63;;;5.35;;
61840;SDS011;47773;53.174;6.614;2023-02-24T10:10:50;47.88;;;5.50;;
61840;SDS011;47773;53.174;6.614;2023-02-24T10:13:34;39.35;;;4.25;;
61840;SDS011;47773;53.174;6.614;2023-02-24T10:16:13;52.97;;;4.72;;
61840;SDS011;47773;53.174;6.614;2023-02-24T10:18:53;36.00;;;4.50;;
61840;SDS011;47773;53.174;6.614;2023-02-24T10:25:02;50.55;;;3.97;;
61840;SDS011;47773;53.174;6.614;2023-02-24T10:30:33;65.38;;;5.80;;
61840;SDS011;47773;53.174;6.614;2023-02-24T10:33:34;54.55;;;5.55;;
61840;SDS011;47773;53.174;6.614;2023-02-24T10:36:18;58.03;;;4.82;;
61840;SDS011;47773;53.174;6.614;2023-02-24T10:38:54;64.65;;;4.78;;
61840;SDS011;47773;53.174;6.614;2023-02-24T10:41:20;59.97;;;4.70;;
61840;SDS011;47773;53.174;6.614;2023-02-24T10:43:57;56.20;;;5.10;;
61840;SDS011;47773;53.174;6.614;2023-02-24T10:46:27;64.72;;;5.28;;
61840;SDS011;47773;53.174;6.614;2023-02-24T10:48:58;46.40;;;5.65;;
61840;SDS011;47773;53.174;6.614;2023-02-24T10:51:30;54.55;;;5.03;;
61840;SDS011;47773;53.174;6.614;2023-02-24T10:54:13;49.15;;;5.30;;
61840;SDS011;47773;53.174;6.614;2023-02-24T10:56:58;61.42;;;5.22;;
61840;SDS011;47773;53.174;6.614;2023-02-24T10:59:53;62.25;;;4.53;;
61840;SDS011;47773;53.174;6.614;2023-02-24T11:02:48;50.63;;;4.45;;
61840;SDS011;47773;53.174;6.614;2023-02-24T11:05:50;50.13;;;4.53;;
61840;SDS011;47773;53.174;6.614;2023-02-24T11:08:28;70.63;;;6.78;;
61840;SDS011;47773;53.174;6.614;2023-02-24T11:11:13;58.13;;;5.47;;
61840;SDS011;47773;53.174;6.614;2023-02-24T11:13:50;53.85;;;5.10;;
61840;SDS011;47773;53.174;6.614;2023-02-24T11:16:51;49.05;;;4.80;;
61840;SDS011;47773;53.174;6.614;2023-02-24T11:22:36;77.15;;;6.03;;
61840;SDS011;47773;53.174;6.614;2023-02-24T11:25:13;76.82;;;5.72;;
61840;SDS011;47773;53.174;6.614;2023-02-24T11:27:55;61.60;;;6.47;;
61840;SDS011;47773;53.174;6.614;2023-02-24T11:33:09;66.38;;;4.65;;
61840;SDS011;47773;53.174;6.614;2023-02-24T11:35:47;52.88;;;5.30;;
61840;SDS011;47773;53.174;6.614;2023-02-24T11:41:17;45.13;;;5.22;;
61840;SDS011;47773;53.174;6.614;2023-02-24T11:46:46;60.65;;;5.47;;
61840;SDS011;47773;53.174;6.614;2023-02-24T11:52:37;57.13;;;4.93;;
61840;SDS011;47773;53.174;6.614;2023-02-24T11:55:13;67.85;;;5.13;;
61840;SDS011;47773;53.174;6.614;2023-02-24T11:57:52;63.60;;;4.82;;
61840;SDS011;47773;53.174;6.614;2023-02-24T12:00:22;47.33;;;5.20;;
61840;SDS011;47773;53.174;6.614;2023-02-24T12:02:53;51.40;;;4.88;;
61840;SDS011;47773;53.174;6.614;2023-02-24T12:05:38;34.05;;;3.97;;
61840;SDS011;47773;53.174;6.614;2023-02-24T12:10:40;30.25;;;3.13;;
61840;SDS011;47773;53.174;6.614;2023-02-24T12:13:21;24.30;;;2.83;;
61840;SDS011;47773;53.174;6.614;2023-02-24T12:18:26;40.50;;;3.83;;
61840;SDS011;47773;53.174;6.614;2023-02-24T12:23:41;32.92;;;3.00;;
61840;SDS011;47773;53.174;6.614;2023-02-24T12:26:14;37.42;;;3.00;;
61840;SDS011;47773;53.174;6.614;2023-02-24T12:37:52;30.35;;;3.20;;
61840;SDS011;47773;53.174;6.614;2023-02-24T12:40:42;28.42;;;2.72;;
61840;SDS011;47773;53.174;6.614;2023-02-24T12:43:31;29.85;;;2.67;;
61840;SDS011;47773;53.174;6.614;2023-02-24T12:46:22;33.70;;;2.80;;
61840;SDS011;47773;53.174;6.614;2023-02-24T12:49:08;17.30;;;2.03;;
61840;SDS011;47773;53.174;6.614;2023-02-24T12:56:56;15.20;;;1.95;;
61840;SDS011;47773;53.174;6.614;2023-02-24T12:59:35;20.02;;;2.78;;
61840;SDS011;47773;53.174;6.614;2023-02-24T13:02:17;20.63;;;1.42;;
61840;SDS011;47773;53.174;6.614;2023-02-24T13:04:57;6.45;;;0.77;;
61840;SDS011;47773;53.174;6.614;2023-02-24T13:10:28;6.65;;;1.02;;
61840;SDS011;47773;53.174;6.614;2023-02-24T13:13:05;10.68;;;0.63;;
61840;SDS011;47773;53.174;6.614;2023-02-24T13:15:47;18.63;;;1.52;;
61840;SDS011;47773;53.174;6.614;2023-02-24T13:18:22;8.40;;;1.27;;
61840;SDS011;47773;53.174;6.614;2023-02-24T13:21:05;9.25;;;0.82;;
61840;SDS011;47773;53.174;6.614;2023-02-24T13:23:39;7.03;;;0.75;;
61840;SDS011;47773;53.174;6.614;2023-02-24T13:26:07;15.20;;;1.35;;
61840;SDS011;47773;53.174;6.614;2023-02-24T13:28:34;8.70;;;1.05;;
61840;SDS011;47773;53.174;6.614;2023-02-24T13:31:11;8.43;;;0.70;;
61840;SDS011;47773;53.174;6.614;2023-02-24T13:33:42;9.85;;;1.00;;
61840;SDS011;47773;53.174;6.614;2023-02-24T13:36:11;12.02;;;0.80;;
61840;SDS011;47773;53.174;6.614;2023-02-24T13:38:40;13.15;;;1.27;;
61840;SDS011;47773;53.174;6.614;2023-02-24T13:43:40;11.80;;;1.00;;
61840;SDS011;47773;53.174;6.614;2023-02-24T13:46:22;10.43;;;0.90;;
61840;SDS011;47773;53.174;6.614;2023-02-24T13:49:34;7.20;;;0.88;;
61840;SDS011;47773;53.174;6.614;2023-02-24T13:51:50;10.27;;;1.10;;
61840;SDS011;47773;53.174;6.614;2023-02-24T13:57:37;11.77;;;0.80;;
61840;SDS011;47773;53.174;6.614;2023-02-24T14:00:27;6.55;;;1.00;;
61840;SDS011;47773;53.174;6.614;2023-02-24T14:03:19;12.60;;;0.80;;
61840;SDS011;47773;53.174;6.614;2023-02-24T14:05:50;12.57;;;1.40;;
61840;SDS011;47773;53.174;6.614;2023-02-24T14:08:24;22.95;;;1.63;;
61840;SDS011;47773;53.174;6.614;2023-02-24T14:10:59;13.75;;;1.15;;
61840;SDS011;47773;53.174;6.614;2023-02-24T14:13:28;14.63;;;1.48;;
61840;SDS011;47773;53.174;6.614;2023-02-24T14:15:58;11.23;;;1.27;;
61840;SDS011;47773;53.174;6.614;2023-02-24T14:18:28;9.55;;;0.98;;
61840;SDS011;47773;53.174;6.614;2023-02-24T14:20:55;12.45;;;1.23;;
61840;SDS011;47773;53.174;6.614;2023-02-24T14:23:23;18.85;;;2.67;;
61840;SDS011;47773;53.174;6.614;2023-02-24T14:25:54;14.73;;;1.40;;
61840;SDS011;47773;53.174;6.614;2023-02-24T14:28:30;20.90;;;1.95;;
61840;SDS011;47773;53.174;6.614;2023-02-24T14:31:11;23.83;;;1.70;;
61840;SDS011;47773;53.174;6.614;2023-02-24T14:33:40;21.73;;;1.85;;
61840;SDS011;47773;53.174;6.614;2023-02-24T14:36:17;30.10;;;3.45;;
61840;SDS011;47773;53.174;6.614;2023-02-24T14:38:58;29.40;;;2.25;;
61840;SDS011;47773;53.174;6.614;2023-02-24T14:41:27;28.05;;;3.05;;
61840;SDS011;47773;53.174;6.614;2023-02-24T14:43:53;21.65;;;2.33;;
61840;SDS011;47773;53.174;6.614;2023-02-24T14:46:20;20.13;;;1.88;;
61840;SDS011;47773;53.174;6.614;2023-02-24T14:48:51;22.45;;;2.17;;
61840;SDS011;47773;53.174;6.614;2023-02-24T14:51:27;20.92;;;1.70;;
61840;SDS011;47773;53.174;6.614;2023-02-24T14:54:00;21.17;;;2.70;;
61840;SDS011;47773;53.174;6.614;2023-02-24T14:56:31;21.70;;;2.88;;
61840;SDS011;47773;53.174;6.614;2023-02-24T15:01:51;27.02;;;2.30;;
61840;SDS011;47773;53.174;6.614;2023-02-24T15:04:25;28.40;;;3.03;;
61840;SDS011;47773;53.174;6.614;2023-02-24T15:09:34;20.95;;;1.90;;
61840;SDS011;47773;53.174;6.614;2023-02-24T15:12:11;32.83;;;3.13;;
61840;SDS011;47773;53.174;6.614;2023-02-24T15:14:47;21.35;;;3.00;;
61840;SDS011;47773;53.174;6.614;2023-02-24T15:17:21;26.90;;;2.28;;
61840;SDS011;47773;53.174;6.614;2023-02-24T15:19:47;33.03;;;3.05;;
61840;SDS011;47773;53.174;6.614;2023-02-24T15:22:20;26.27;;;2.30;;
61840;SDS011;47773;53.174;6.614;2023-02-24T15:27:57;10.82;;;1.65;;
61840;SDS011;47773;53.174;6.614;2023-02-24T15:33:16;17.98;;;1.48;;
61840;SDS011;47773;53.174;6.614;2023-02-24T15:35:50;17.77;;;1.80;;
61840;SDS011;47773;53.174;6.614;2023-02-24T15:40:52;13.07;;;1.35;;
61840;SDS011;47773;53.174;6.614;2023-02-24T15:43:29;18.52;;;2.05;;
61840;SDS011;47773;53.174;6.614;2023-02-24T15:45:56;16.95;;;2.95;;
61840;SDS011;47773;53.174;6.614;2023-02-24T15:48:22;18.30;;;2.22;;
61840;SDS011;47773;53.174;6.614;2023-02-24T15:50:52;17.95;;;1.80;;
61840;SDS011;47773;53.174;6.614;2023-02-24T15:53:18;21.20;;;2.13;;
61840;SDS011;47773;53.174;6.614;2023-02-24T15:55:44;17.38;;;1.75;;
61840;SDS011;47773;53.174;6.614;2023-02-24T15:58:14;28.48;;;2.63;;
61840;SDS011;47773;53.174;6.614;2023-02-24T16:00:42;19.58;;;1.95;;
61840;SDS011;47773;53.174;6.614;2023-02-24T16:03:09;14.77;;;1.15;;
61840;SDS011;47773;53.174;6.614;2023-02-24T16:05:35;8.20;;;1.40;;
61840;SDS011;47773;53.174;6.614;2023-02-24T16:08:01;21.08;;;1.88;;
61840;SDS011;47773;53.174;6.614;2023-02-24T16:10:28;9.88;;;1.42;;
61840;SDS011;47773;53.174;6.614;2023-02-24T16:12:55;18.25;;;1.90;;
61840;SDS011;47773;53.174;6.614;2023-02-24T16:15:27;12.23;;;1.33;;
61840;SDS011;47773;53.174;6.614;2023-02-24T16:18:03;19.08;;;2.10;;
61840;SDS011;47773;53.174;6.614;2023-02-24T16:20:42;14.40;;;1.67;;
61840;SDS011;47773;53.174;6.614;2023-02-24T16:23:13;14.63;;;1.52;;
61840;SDS011;47773;53.174;6.614;2023-02-24T16:25:42;17.73;;;1.25;;
61840;SDS011;47773;53.174;6.614;2023-02-24T16:28:15;20.52;;;2.20;;
61840;SDS011;47773;53.174;6.614;2023-02-24T16:30:43;18.13;;;1.80;;
61840;SDS011;47773;53.174;6.614;2023-02-24T16:33:12;25.30;;;2.50;;
61840;SDS011;47773;53.174;6.614;2023-02-24T16:35:40;13.75;;;1.85;;
61840;SDS011;47773;53.174;6.614;2023-02-24T16:38:14;28.85;;;1.88;;
61840;SDS011;47773;53.174;6.614;2023-02-24T16:40:43;14.02;;;1.77;;
61840;SDS011;47773;53.174;6.614;2023-02-24T16:43:11;29.80;;;2.67;;
61840;SDS011;47773;53.174;6.614;2023-02-24T16:45:40;24.73;;;2.83;;
61840;SDS011;47773;53.174;6.614;2023-02-24T16:48:08;24.05;;;2.70;;
61840;SDS011;47773;53.174;6.614;2023-02-24T16:50:44;26.90;;;3.38;;
61840;SDS011;47773;53.174;6.614;2023-02-24T16:53:15;19.92;;;2.90;;
61840;SDS011;47773;53.174;6.614;2023-02-24T16:55:43;31.40;;;3.92;;
61840;SDS011;47773;53.174;6.614;2023-02-24T16:58:09;28.77;;;3.45;;
61840;SDS011;47773;53.174;6.614;2023-02-24T17:00:36;32.28;;;4.03;;
61840;SDS011;47773;53.174;6.614;2023-02-24T17:03:05;36.13;;;7.30;;
61840;SDS011;47773;53.174;6.614;2023-02-24T17:05:38;23.90;;;2.92;;
61840;SDS011;47773;53.174;6.614;2023-02-24T17:08:06;29.95;;;3.55;;
61840;SDS011;47773;53.174;6.614;2023-02-24T17:10:34;32.97;;;3.72;;
61840;SDS011;47773;53.174;6.614;2023-02-24T17:13:05;33.33;;;3.47;;
61840;SDS011;47773;53.174;6.614;2023-02-24T17:15:31;31.23;;;3.55;;
61840;SDS011;47773;53.174;6.614;2023-02-24T17:17:56;21.65;;;2.40;;